Time;durP1;ratioP1;P1;durP2;ratioP2;P2;SDS_P1;SDS_P2;PMS_P1;PMS_P2;Temp;Humidity;BMP_temperature;BMP_pressure;BME280_temperature;BME280_humidity;BME280_pressure;Samples;Min_cycle;Max_cycle;Signal;HPM_P1;HPM_P2
2022/07/10 00:01:14;;;;;;;5.37;1.30;;;;;;;;;;5039129;28;20182;-79
2022/07/10 00:03:40;;;;;;;2.80;1.10;;;;;;;;;;5039238;28;20192;-80
2022/07/10 00:06:07;;;;;;;2.70;1.27;;;;;;;;;;5039684;28;20256;-80
2022/07/10 00:08:32;;;;;;;1.97;1.20;;;;;;;;;;5059978;28;20189;-80
2022/07/10 00:10:58;;;;;;;3.03;1.17;;;;;;;;;;5045559;28;20186;-80
2022/07/10 00:13:24;;;;;;;2.57;1.17;;;;;;;;;;5040928;28;20210;-80
2022/07/10 00:15:50;;;;;;;3.40;1.40;;;;;;;;;;5036908;28;20177;-80
2022/07/10 00:18:16;;;;;;;2.57;1.37;;;;;;;;;;5037022;28;20182;-79
2022/07/10 00:20:42;;;;;;;2.73;1.37;;;;;;;;;;5053348;28;20173;-80
2022/07/10 00:23:08;;;;;;;3.07;1.30;;;;;;;;;;5036623;28;20182;-80
2022/07/10 00:25:34;;;;;;;2.37;1.20;;;;;;;;;;5053259;28;20178;-80
2022/07/10 00:28:01;;;;;;;3.27;1.30;;;;;;;;;;5053103;28;20284;-80
2022/07/10 00:30:27;;;;;;;2.70;1.20;;;;;;;;;;5052851;28;20577;-80
2022/07/10 00:32:53;;;;;;;2.67;1.60;;;;;;;;;;5052583;28;20201;-80
2022/07/10 00:35:19;;;;;;;2.93;1.30;;;;;;;;;;5036685;28;20375;-80
2022/07/10 00:37:45;;;;;;;1.77;1.10;;;;;;;;;;5036801;28;20285;-80
2022/07/10 00:40:12;;;;;;;5.03;1.10;;;;;;;;;;5052909;28;20606;-80
2022/07/10 00:42:38;;;;;;;1.87;1.30;;;;;;;;;;5052747;28;20703;-79
2022/07/10 00:45:04;;;;;;;2.10;1.00;;;;;;;;;;5053195;28;20181;-80
2022/07/10 00:47:30;;;;;;;2.40;1.13;;;;;;;;;;5052650;28;20288;-80
2022/07/10 00:49:56;;;;;;;1.87;1.20;;;;;;;;;;5052804;28;20204;-79
2022/07/10 00:52:22;;;;;;;3.37;1.40;;;;;;;;;;5052632;28;20197;-80
2022/07/10 00:54:51;;;;;;;2.90;1.13;;;;;;;;;;5036215;28;20212;-80
2022/07/10 00:57:18;;;;;;;2.53;1.50;;;;;;;;;;5036208;28;20240;-80
2022/07/10 00:59:44;;;;;;;2.53;1.40;;;;;;;;;;5035676;28;20174;-80
2022/07/10 01:02:11;;;;;;;3.03;1.20;;;;;;;;;;5052207;28;20177;-79
2022/07/10 01:04:37;;;;;;;1.53;1.00;;;;;;;;;;5052860;28;20177;-79
2022/07/10 01:07:03;;;;;;;2.20;1.07;;;;;;;;;;5052199;28;20702;-80
2022/07/10 01:09:29;;;;;;;3.73;1.30;;;;;;;;;;5052297;28;20177;-80
2022/07/10 01:11:56;;;;;;;1.30;1.07;;;;;;;;;;5052356;28;20192;-79
2022/07/10 01:14:22;;;;;;;1.83;1.10;;;;;;;;;;5035767;28;20177;-80
2022/07/10 01:16:49;;;;;;;1.57;1.10;;;;;;;;;;5051855;28;20679;-80
2022/07/10 01:19:15;;;;;;;1.40;1.10;;;;;;;;;;5036073;28;20186;-80
2022/07/10 01:21:41;;;;;;;2.27;1.30;;;;;;;;;;5035783;28;20178;-80
2022/07/10 01:24:07;;;;;;;1.83;1.23;;;;;;;;;;5035757;28;20729;-80
2022/07/10 01:26:34;;;;;;;2.33;1.30;;;;;;;;;;5035577;28;20205;-80
2022/07/10 01:29:02;;;;;;;1.37;0.93;;;;;;;;;;5035589;28;20223;-79
2022/07/10 01:31:28;;;;;;;1.70;1.20;;;;;;;;;;5035694;28;20666;-80
2022/07/10 01:33:55;;;;;;;2.00;1.20;;;;;;;;;;5035189;28;20206;-79
2022/07/10 01:36:24;;;;;;;2.27;1.20;;;;;;;;;;5051900;28;20201;-80
2022/07/10 01:38:54;;;;;;;2.03;1.40;;;;;;;;;;5035422;28;20193;-79
2022/07/10 01:41:20;;;;;;;3.47;1.20;;;;;;;;;;5035445;28;20273;-79
2022/07/10 01:43:48;;;;;;;2.03;1.30;;;;;;;;;;5035199;28;20177;-79
2022/07/10 01:46:14;;;;;;;2.63;1.20;;;;;;;;;;5035571;28;20205;-79
2022/07/10 01:48:40;;;;;;;2.13;1.10;;;;;;;;;;5035265;28;20189;-79
2022/07/10 01:51:06;;;;;;;3.00;1.20;;;;;;;;;;5035184;28;20245;-80
2022/07/10 01:53:32;;;;;;;1.63;1.13;;;;;;;;;;5035134;28;20304;-80
2022/07/10 01:55:59;;;;;;;2.30;1.23;;;;;;;;;;5051640;28;20220;-80
2022/07/10 01:58:25;;;;;;;2.53;1.30;;;;;;;;;;5035042;28;20201;-80
2022/07/10 02:00:51;;;;;;;2.43;1.10;;;;;;;;;;5035236;28;20177;-79
2022/07/10 02:06:01;;;;;;;2.63;1.10;;;;;;;;;;5053058;28;20193;-79
2022/07/10 02:08:27;;;;;;;3.33;1.10;;;;;;;;;;5036024;28;20190;-80
2022/07/10 02:10:54;;;;;;;3.07;1.13;;;;;;;;;;5054716;28;20178;-79
2022/07/10 02:13:20;;;;;;;2.93;1.40;;;;;;;;;;5056526;28;20201;-79
2022/07/10 02:15:50;;;;;;;2.00;1.00;;;;;;;;;;5056541;28;20667;-79
2022/07/10 02:18:16;;;;;;;1.10;1.00;;;;;;;;;;5057103;28;20212;-79
2022/07/10 02:20:42;;;;;;;2.57;1.17;;;;;;;;;;5040207;28;20184;-80
2022/07/10 02:23:08;;;;;;;1.93;1.00;;;;;;;;;;5039848;28;20285;-79
2022/07/10 02:25:34;;;;;;;1.20;1.10;;;;;;;;;;5056982;28;20184;-79
2022/07/10 02:28:00;;;;;;;1.47;1.00;;;;;;;;;;5056338;28;20301;-79
2022/07/10 02:30:26;;;;;;;2.63;1.10;;;;;;;;;;5056252;28;20174;-79
2022/07/10 02:32:52;;;;;;;3.53;1.20;;;;;;;;;;5056586;28;20338;-79
2022/07/10 02:35:18;;;;;;;1.03;0.90;;;;;;;;;;5039871;28;20174;-79
2022/07/10 02:37:44;;;;;;;2.97;1.20;;;;;;;;;;5056190;28;20201;-79
2022/07/10 02:40:10;;;;;;;1.57;1.10;;;;;;;;;;5055969;28;20174;-79
2022/07/10 02:42:37;;;;;;;3.07;1.20;;;;;;;;;;5056065;28;20181;-79
2022/07/10 02:45:03;;;;;;;2.00;1.10;;;;;;;;;;5056001;28;20184;-80
2022/07/10 02:47:29;;;;;;;1.87;1.20;;;;;;;;;;5055973;28;20201;-79
2022/07/10 02:49:55;;;;;;;2.67;1.23;;;;;;;;;;5056074;28;20640;-79
2022/07/10 02:52:21;;;;;;;1.80;1.10;;;;;;;;;;5055702;28;20251;-79
2022/07/10 02:54:47;;;;;;;1.53;1.00;;;;;;;;;;5038928;28;20186;-79
2022/07/10 02:57:13;;;;;;;1.30;1.10;;;;;;;;;;5055864;28;20574;-79
2022/07/10 02:59:39;;;;;;;3.13;1.40;;;;;;;;;;5038727;28;20644;-80
2022/07/10 03:02:05;;;;;;;2.23;1.17;;;;;;;;;;5038828;28;20268;-79
2022/07/10 03:04:31;;;;;;;2.83;1.20;;;;;;;;;;5055182;28;20189;-79
2022/07/10 03:06:58;;;;;;;1.53;0.90;;;;;;;;;;5038479;28;20201;-79
2022/07/10 03:09:25;;;;;;;2.53;1.00;;;;;;;;;;5039296;28;20182;-80
2022/07/10 03:11:51;;;;;;;1.73;1.07;;;;;;;;;;5038931;28;20181;-79
2022/07/10 03:14:17;;;;;;;2.50;1.37;;;;;;;;;;5055180;28;20275;-79
2022/07/10 03:16:43;;;;;;;2.47;1.03;;;;;;;;;;5064922;23;20216;-75
2022/07/10 03:19:09;;;;;;;1.40;1.00;;;;;;;;;;5073621;28;20182;-76
2022/07/10 03:21:35;;;;;;;2.93;1.00;;;;;;;;;;5072849;28;20540;-76
2022/07/10 03:24:01;;;;;;;2.80;1.50;;;;;;;;;;5056743;28;20185;-76
2022/07/10 03:26:29;;;;;;;1.63;1.03;;;;;;;;;;5073480;28;20560;-76
2022/07/10 03:28:55;;;;;;;1.43;1.10;;;;;;;;;;5057221;28;20199;-76
2022/07/10 03:31:21;;;;;;;1.97;1.03;;;;;;;;;;5056722;28;20185;-76
2022/07/10 03:33:47;;;;;;;1.53;1.20;;;;;;;;;;5056611;28;20212;-76
2022/07/10 03:36:13;;;;;;;1.20;1.10;;;;;;;;;;5073085;28;20178;-76
2022/07/10 03:38:39;;;;;;;5.40;1.20;;;;;;;;;;5074405;28;20223;-76
2022/07/10 03:41:05;;;;;;;3.10;1.10;;;;;;;;;;5056534;28;20204;-76
2022/07/10 03:43:31;;;;;;;2.60;1.00;;;;;;;;;;5056273;28;20569;-76
2022/07/10 03:45:58;;;;;;;3.30;1.10;;;;;;;;;;5073153;28;20651;-76
2022/07/10 03:48:24;;;;;;;3.03;1.10;;;;;;;;;;5073019;28;20291;-76
2022/07/10 03:50:51;;;;;;;4.10;1.10;;;;;;;;;;5072936;28;20219;-76
2022/07/10 03:53:17;;;;;;;3.90;1.30;;;;;;;;;;5055984;28;20663;-76
2022/07/10 03:55:43;;;;;;;2.10;1.03;;;;;;;;;;5072891;28;20181;-76
2022/07/10 03:58:09;;;;;;;1.60;1.20;;;;;;;;;;5056178;28;20234;-76
2022/07/10 04:00:37;;;;;;;5.47;1.40;;;;;;;;;;5056045;28;20275;-76
2022/07/10 04:03:04;;;;;;;2.50;1.20;;;;;;;;;;5056379;28;20254;-76
2022/07/10 04:05:30;;;;;;;2.57;1.17;;;;;;;;;;5056048;28;20188;-76
2022/07/10 04:07:57;;;;;;;1.73;1.20;;;;;;;;;;5055978;28;20205;-76
2022/07/10 04:10:23;;;;;;;2.57;1.10;;;;;;;;;;5072900;28;20177;-76
2022/07/10 04:12:49;;;;;;;2.30;1.33;;;;;;;;;;5055849;28;20613;-76
2022/07/10 04:15:15;;;;;;;2.97;1.20;;;;;;;;;;5072690;28;20169;-76
2022/07/10 04:17:42;;;;;;;2.40;1.10;;;;;;;;;;5072667;28;20212;-76
2022/07/10 04:20:08;;;;;;;3.40;1.10;;;;;;;;;;5072131;28;20231;-76
2022/07/10 04:22:34;;;;;;;1.57;1.00;;;;;;;;;;5055911;28;20610;-76
2022/07/10 04:25:00;;;;;;;2.83;1.10;;;;;;;;;;5072584;28;20177;-76
2022/07/10 04:27:26;;;;;;;1.97;1.27;;;;;;;;;;5072328;28;20193;-76
2022/07/10 04:29:53;;;;;;;5.70;1.50;;;;;;;;;;5055812;28;20227;-76
2022/07/10 04:32:19;;;;;;;2.47;1.30;;;;;;;;;;5072472;28;20206;-76
2022/07/10 04:34:45;;;;;;;1.27;1.10;;;;;;;;;;5071761;28;20204;-76
2022/07/10 04:37:11;;;;;;;3.17;1.30;;;;;;;;;;5055607;28;20628;-76
2022/07/10 04:39:37;;;;;;;4.03;1.30;;;;;;;;;;5072203;28;20177;-76
2022/07/10 04:42:04;;;;;;;2.30;1.10;;;;;;;;;;5071868;28;20176;-76
2022/07/10 04:44:30;;;;;;;3.63;1.10;;;;;;;;;;5072049;28;20754;-76
2022/07/10 04:46:56;;;;;;;1.83;1.17;;;;;;;;;;5073079;28;20185;-76
2022/07/10 04:49:22;;;;;;;1.73;1.10;;;;;;;;;;5055227;28;20184;-76
2022/07/10 04:51:48;;;;;;;2.37;1.00;;;;;;;;;;5071822;28;20259;-76
2022/07/10 04:54:14;;;;;;;2.77;1.00;;;;;;;;;;5054993;28;20646;-76
2022/07/10 04:56:40;;;;;;;2.70;1.20;;;;;;;;;;5055127;28;20200;-76
2022/07/10 04:59:07;;;;;;;2.23;1.00;;;;;;;;;;5071725;28;20193;-77
2022/07/10 05:01:33;;;;;;;1.93;1.00;;;;;;;;;;5071365;28;20169;-76
2022/07/10 05:03:59;;;;;;;2.80;1.23;;;;;;;;;;5071281;28;20188;-76
2022/07/10 05:06:25;;;;;;;3.20;1.17;;;;;;;;;;5071432;28;20259;-75
2022/07/10 05:08:51;;;;;;;2.77;1.30;;;;;;;;;;5072711;28;20192;-75
2022/07/10 05:11:17;;;;;;;2.70;1.20;;;;;;;;;;5055025;28;20181;-75
2022/07/10 05:13:48;;;;;;;8.57;1.50;;;;;;;;;;5054594;28;20204;-76
2022/07/10 05:16:14;;;;;;;2.50;1.10;;;;;;;;;;5071118;28;20179;-76
2022/07/10 05:18:40;;;;;;;3.33;1.40;;;;;;;;;;5071544;28;20658;-76
2022/07/10 05:21:06;;;;;;;2.97;1.20;;;;;;;;;;5054977;28;20263;-76
2022/07/10 05:23:32;;;;;;;1.60;1.10;;;;;;;;;;5054867;28;20204;-76
2022/07/10 05:25:58;;;;;;;2.40;1.40;;;;;;;;;;5071343;28;20689;-76
2022/07/10 05:28:24;;;;;;;1.73;1.00;;;;;;;;;;5071100;28;20197;-76
2022/07/10 05:30:50;;;;;;;2.97;1.20;;;;;;;;;;5054465;28;20283;-76
2022/07/10 05:33:16;;;;;;;3.53;1.17;;;;;;;;;;5071975;28;20205;-76
2022/07/10 05:35:42;;;;;;;1.80;1.10;;;;;;;;;;5054623;28;20169;-76
2022/07/10 05:38:08;;;;;;;2.47;1.10;;;;;;;;;;5070950;28;20204;-76
2022/07/10 05:40:34;;;;;;;1.57;1.03;;;;;;;;;;5072183;28;20173;-76
2022/07/10 05:43:00;;;;;;;3.13;1.23;;;;;;;;;;5070813;28;20271;-76
2022/07/10 05:45:27;;;;;;;3.60;1.10;;;;;;;;;;5070454;28;20241;-76
2022/07/10 05:47:52;;;;;;;2.17;0.90;;;;;;;;;;5054462;28;20201;-76
2022/07/10 05:50:19;;;;;;;2.10;0.90;;;;;;;;;;5054264;28;20203;-76
2022/07/10 05:52:45;;;;;;;2.30;1.60;;;;;;;;;;5054068;28;20223;-76
2022/07/10 05:55:11;;;;;;;2.23;1.00;;;;;;;;;;5070769;28;20173;-76
2022/07/10 05:57:37;;;;;;;4.00;1.20;;;;;;;;;;5054292;28;20300;-76
2022/07/10 06:00:05;;;;;;;3.73;1.10;;;;;;;;;;5070775;28;20643;-76
2022/07/10 06:02:31;;;;;;;2.67;1.00;;;;;;;;;;5070535;28;20303;-76
2022/07/10 06:04:57;;;;;;;3.50;1.40;;;;;;;;;;5054321;28;20275;-75
2022/07/10 06:07:23;;;;;;;2.40;1.17;;;;;;;;;;5072034;28;20197;-76
2022/07/10 06:09:49;;;;;;;1.87;0.97;;;;;;;;;;5070784;28;20180;-75
2022/07/10 06:12:15;;;;;;;3.57;1.10;;;;;;;;;;5071601;28;20257;-76
2022/07/10 06:14:42;;;;;;;1.50;0.90;;;;;;;;;;5070733;28;20222;-76
2022/07/10 06:17:08;;;;;;;2.23;0.87;;;;;;;;;;5054069;28;20212;-75
2022/07/10 06:19:34;;;;;;;2.73;1.07;;;;;;;;;;5070926;28;20177;-76
2022/07/10 06:24:45;;;;;;;2.43;0.97;;;;;;;;;;5071138;28;20195;-76
2022/07/10 06:27:11;;;;;;;1.97;1.10;;;;;;;;;;5070417;28;20196;-76
2022/07/10 06:29:37;;;;;;;3.17;1.10;;;;;;;;;;5070989;28;20181;-76
2022/07/10 06:32:03;;;;;;;2.50;1.17;;;;;;;;;;5053809;28;20596;-75
2022/07/10 06:34:29;;;;;;;3.03;1.00;;;;;;;;;;5053922;28;20657;-76
2022/07/10 06:36:55;;;;;;;2.83;1.20;;;;;;;;;;5053786;28;20284;-76
2022/07/10 06:39:21;;;;;;;3.57;0.93;;;;;;;;;;5053787;28;20181;-76
2022/07/10 06:41:47;;;;;;;2.03;0.90;;;;;;;;;;5070169;28;20219;-76
2022/07/10 06:44:13;;;;;;;2.43;1.27;;;;;;;;;;5054049;28;20184;-76
2022/07/10 06:46:39;;;;;;;3.50;1.30;;;;;;;;;;5053667;28;20205;-76
2022/07/10 06:49:05;;;;;;;3.73;1.30;;;;;;;;;;5070303;28;20199;-76
2022/07/10 06:51:31;;;;;;;1.90;1.30;;;;;;;;;;5070276;28;20181;-75
2022/07/10 06:53:57;;;;;;;3.00;1.17;;;;;;;;;;5071293;28;20193;-75
2022/07/10 06:56:23;;;;;;;2.60;1.10;;;;;;;;;;5054882;28;20600;-75
2022/07/10 06:58:49;;;;;;;2.63;1.23;;;;;;;;;;5073940;28;20169;-75
2022/07/10 07:01:15;;;;;;;2.67;1.00;;;;;;;;;;5057274;28;20184;-75
2022/07/10 07:03:41;;;;;;;3.73;1.13;;;;;;;;;;5074922;28;20199;-75
2022/07/10 07:06:10;;;;;;;2.40;1.00;;;;;;;;;;5057315;28;20181;-75
2022/07/10 07:08:36;;;;;;;2.47;0.97;;;;;;;;;;5073784;28;20180;-75
2022/07/10 07:11:02;;;;;;;2.27;1.10;;;;;;;;;;5057206;28;20188;-75
2022/07/10 07:13:28;;;;;;;3.10;1.10;;;;;;;;;;5073680;28;20291;-75
2022/07/10 07:16:00;;;;;;;3.67;1.30;;;;;;;;;;5073639;28;20269;-75
2022/07/10 07:18:32;;;;;;;2.60;1.00;;;;;;;;;;5073756;28;20338;-75
2022/07/10 07:23:46;;;;;;;2.73;1.10;;;;;;;;;;5073877;28;20264;-75
2022/07/10 07:26:12;;;;;;;2.60;1.00;;;;;;;;;;5074680;28;20200;-75
2022/07/10 07:28:38;;;;;;;3.20;1.10;;;;;;;;;;5056997;28;20181;-75
2022/07/10 07:31:05;;;;;;;3.83;1.20;;;;;;;;;;5073273;28;20177;-75
2022/07/10 07:33:31;;;;;;;4.30;1.23;;;;;;;;;;5073046;28;20732;-75
2022/07/10 07:35:57;;;;;;;4.13;1.53;;;;;;;;;;5073197;28;20195;-75
2022/07/10 07:38:23;;;;;;;1.97;1.13;;;;;;;;;;5056696;28;20205;-75
2022/07/10 07:40:48;;;;;;;2.90;1.20;;;;;;;;;;5056681;28;20187;-75
2022/07/10 07:43:15;;;;;;;2.90;1.10;;;;;;;;;;5073131;28;20259;-75
2022/07/10 07:45:41;;;;;;;3.53;1.03;;;;;;;;;;5073183;28;20247;-75
2022/07/10 07:48:07;;;;;;;1.40;1.00;;;;;;;;;;5073077;28;20221;-75
2022/07/10 07:50:34;;;;;;;3.00;1.43;;;;;;;;;;5072912;28;20184;-75
2022/07/10 07:53:01;;;;;;;1.80;1.00;;;;;;;;;;5056455;28;20209;-75
2022/07/10 07:55:27;;;;;;;4.57;1.10;;;;;;;;;;5073136;28;20224;-77
2022/07/10 07:57:53;;;;;;;2.83;1.00;;;;;;;;;;5072976;28;20659;-75
2022/07/10 08:00:22;;;;;;;2.30;0.87;;;;;;;;;;5072948;28;20200;-75
2022/07/10 08:02:48;;;;;;;4.67;1.40;;;;;;;;;;5072799;28;20180;-74
2022/07/10 08:05:14;;;;;;;3.20;1.20;;;;;;;;;;5072600;28;20562;-75
2022/07/10 08:07:43;;;;;;;2.90;1.10;;;;;;;;;;5072598;28;20688;-75
2022/07/10 08:10:10;;;;;;;3.00;1.10;;;;;;;;;;5072822;28;20184;-75
2022/07/10 08:12:36;;;;;;;2.87;1.23;;;;;;;;;;5072379;28;20266;-75
2022/07/10 08:15:02;;;;;;;1.30;0.90;;;;;;;;;;5072605;28;20654;-76
2022/07/10 08:17:28;;;;;;;2.80;1.10;;;;;;;;;;5055637;28;20282;-74
2022/07/10 08:19:54;;;;;;;2.60;1.10;;;;;;;;;;5073724;28;20197;-74
2022/07/10 08:22:20;;;;;;;2.83;1.00;;;;;;;;;;5072228;28;20169;-74
2022/07/10 08:24:46;;;;;;;5.07;1.30;;;;;;;;;;5072474;28;20177;-74
2022/07/10 08:27:12;;;;;;;2.53;0.97;;;;;;;;;;5055830;28;20201;-73
2022/07/10 08:29:39;;;;;;;3.33;0.97;;;;;;;;;;5072277;28;20183;-73
2022/07/10 08:32:05;;;;;;;5.50;1.03;;;;;;;;;;5055347;28;20199;-74
2022/07/10 08:34:32;;;;;;;2.83;1.00;;;;;;;;;;5071949;28;20215;-74
2022/07/10 08:36:59;;;;;;;2.77;1.10;;;;;;;;;;5055959;28;20197;-73
2022/07/10 08:39:25;;;;;;;2.30;1.00;;;;;;;;;;5055511;28;20177;-73
2022/07/10 08:41:51;;;;;;;1.43;0.90;;;;;;;;;;5072005;28;20173;-73
2022/07/10 08:44:18;;;;;;;3.57;1.30;;;;;;;;;;5071851;28;20181;-74
2022/07/10 08:46:47;;;;;;;2.07;1.13;;;;;;;;;;5055166;28;20223;-73
2022/07/10 08:49:16;;;;;;;2.23;1.10;;;;;;;;;;5071943;28;20268;-73
2022/07/10 08:51:48;;;;;;;1.40;0.90;;;;;;;;;;5071636;28;20177;-73
2022/07/10 08:54:17;;;;;;;3.53;1.20;;;;;;;;;;5071629;28;20208;-73
2022/07/10 08:56:43;;;;;;;3.67;1.00;;;;;;;;;;5055538;28;20287;-73
2022/07/10 08:59:10;;;;;;;1.73;1.20;;;;;;;;;;5055017;28;20181;-73
2022/07/10 09:01:36;;;;;;;2.50;1.10;;;;;;;;;;5071693;28;20180;-73
2022/07/10 09:04:02;;;;;;;1.80;0.90;;;;;;;;;;5054897;28;20192;-73
2022/07/10 09:06:29;;;;;;;2.17;1.00;;;;;;;;;;5055140;28;20315;-73
2022/07/10 09:08:59;;;;;;;2.93;1.07;;;;;;;;;;5055037;28;20276;-73
2022/07/10 09:11:28;;;;;;;1.10;0.90;;;;;;;;;;5072761;28;20174;-73
2022/07/10 09:13:56;;;;;;;2.33;0.90;;;;;;;;;;5071088;28;20227;-73
2022/07/10 09:16:25;;;;;;;2.90;0.90;;;;;;;;;;5054903;28;20191;-74
2022/07/10 09:18:52;;;;;;;2.70;1.00;;;;;;;;;;5092827;22;20216;-75
2022/07/10 09:21:18;;;;;;;12.63;5.10;;;;;;;;;;5071741;28;20219;-77
2022/07/10 09:23:44;;;;;;;29.90;9.03;;;;;;;;;;5055947;28;20187;-79
2022/07/10 09:26:10;;;;;;;6.47;2.13;;;;;;;;;;5077808;28;20215;-80
2022/07/10 09:28:36;;;;;;;10.57;3.57;;;;;;;;;;5059729;28;20202;-78
2022/07/10 09:31:02;;;;;;;17.47;5.77;;;;;;;;;;5059205;28;20193;-78
2022/07/10 09:33:31;;;;;;;7.33;3.80;;;;;;;;;;5068498;28;20267;-79
2022/07/10 09:36:13;;;;;;;3.80;2.13;;;;;;;;;;5070960;28;20173;-79
2022/07/10 09:38:54;;;;;;;1.70;1.33;;;;;;;;;;5050646;28;20193;-79
2022/07/10 09:41:21;;;;;;;2.80;1.13;;;;;;;;;;5044384;28;20193;-79
2022/07/10 09:44:08;;;;;;;4.77;2.27;;;;;;;;;;5052436;28;20177;-79
2022/07/10 09:46:38;;;;;;;3.47;1.27;;;;;;;;;;5048211;28;20181;-79
2022/07/10 09:49:12;;;;;;;3.03;1.37;;;;;;;;;;5049286;28;20659;-79
2022/07/10 09:51:39;;;;;;;6.40;3.07;;;;;;;;;;5031075;28;20325;-77
2022/07/10 09:54:06;;;;;;;4.30;3.67;;;;;;;;;;5047307;28;20202;-77
2022/07/10 09:56:42;;;;;;;1.80;1.00;;;;;;;;;;5050119;28;20260;-78
2022/07/10 09:59:12;;;;;;;2.33;1.10;;;;;;;;;;5067594;28;20177;-78
2022/07/10 10:01:41;;;;;;;2.13;0.90;;;;;;;;;;5071095;28;20323;-78
2022/07/10 10:04:09;;;;;;;2.07;1.60;;;;;;;;;;5068911;28;20648;-78
2022/07/10 10:06:36;;;;;;;2.43;0.80;;;;;;;;;;5067782;28;20587;-78
2022/07/10 10:09:02;;;;;;;3.20;1.00;;;;;;;;;;5067387;28;20202;-78
2022/07/10 10:11:30;;;;;;;2.67;1.00;;;;;;;;;;5067537;28;20600;-78
2022/07/10 10:13:56;;;;;;;3.97;1.50;;;;;;;;;;5050575;28;20201;-78
2022/07/10 10:16:22;;;;;;;3.67;1.20;;;;;;;;;;5067186;28;20173;-78
2022/07/10 10:21:36;;;;;;;1.30;0.80;;;;;;;;;;5051083;28;20670;-78
2022/07/10 10:24:03;;;;;;;3.63;2.20;;;;;;;;;;5067401;28;20208;-77
2022/07/10 10:26:29;;;;;;;1.77;0.83;;;;;;;;;;5054401;28;20186;-77
2022/07/10 10:28:56;;;;;;;2.60;1.50;;;;;;;;;;5014585;28;20611;-78
2022/07/10 10:31:23;;;;;;;1.63;0.87;;;;;;;;;;5048922;28;20183;-79
2022/07/10 10:33:51;;;;;;;2.57;1.10;;;;;;;;;;5017934;28;20304;-78
2022/07/10 10:36:36;;;;;;;3.13;0.80;;;;;;;;;;5018698;28;20178;-80
2022/07/10 10:39:02;;;;;;;1.67;0.77;;;;;;;;;;5051149;28;20193;-78
2022/07/10 10:41:31;;;;;;;1.40;0.70;;;;;;;;;;5050882;28;20261;-78
2022/07/10 10:44:09;;;;;;;1.73;0.90;;;;;;;;;;5018554;28;20232;-79
2022/07/10 10:46:36;;;;;;;3.27;1.77;;;;;;;;;;5051491;28;20179;-79
2022/07/10 10:49:08;;;;;;;0.97;0.70;;;;;;;;;;5051584;28;20190;-79
2022/07/10 10:51:53;;;;;;;5.73;1.90;;;;;;;;;;5018579;28;20183;-77
2022/07/10 10:54:19;;;;;;;2.30;0.90;;;;;;;;;;5052853;28;20570;-78
2022/07/10 10:56:45;;;;;;;1.97;0.80;;;;;;;;;;5053146;28;20265;-77
2022/07/10 10:59:30;;;;;;;2.93;0.80;;;;;;;;;;5054395;28;20223;-78
2022/07/10 11:02:15;;;;;;;1.97;1.17;;;;;;;;;;5070344;28;20178;-80
2022/07/10 11:04:41;;;;;;;1.93;0.80;;;;;;;;;;5070996;28;20216;-79
2022/07/10 11:07:07;;;;;;;1.17;0.70;;;;;;;;;;5054546;28;20237;-79
2022/07/10 11:09:33;;;;;;;2.27;0.90;;;;;;;;;;5054357;28;20635;-80
2022/07/10 11:12:03;;;;;;;1.87;0.80;;;;;;;;;;5070977;28;20182;-78
2022/07/10 11:14:30;;;;;;;4.33;1.10;;;;;;;;;;5070809;28;20240;-77
2022/07/10 11:16:56;;;;;;;2.80;1.00;;;;;;;;;;5070354;28;20264;-78
2022/07/10 11:19:23;;;;;;;1.43;0.80;;;;;;;;;;5054270;28;20203;-78
2022/07/10 11:21:54;;;;;;;2.70;0.93;;;;;;;;;;5053824;28;20182;-78
2022/07/10 11:24:32;;;;;;;1.57;0.60;;;;;;;;;;5070652;28;20181;-78
2022/07/10 11:27:17;;;;;;;4.13;0.83;;;;;;;;;;5070489;28;20182;-78
2022/07/10 11:29:47;;;;;;;1.40;0.70;;;;;;;;;;5070752;28;20620;-78
2022/07/10 11:32:15;;;;;;;2.50;0.90;;;;;;;;;;5054177;28;20181;-79
2022/07/10 11:34:41;;;;;;;3.17;1.10;;;;;;;;;;5070542;28;20220;-78
2022/07/10 11:37:17;;;;;;;0.70;0.70;;;;;;;;;;5053834;28;20194;-78
2022/07/10 11:39:43;;;;;;;1.47;0.70;;;;;;;;;;5053537;28;20181;-78
2022/07/10 11:42:09;;;;;;;1.63;0.90;;;;;;;;;;5052968;28;20213;-78
2022/07/10 11:44:35;;;;;;;1.87;1.00;;;;;;;;;;5070662;28;20589;-79
2022/07/10 11:49:50;;;;;;;2.03;0.97;;;;;;;;;;5055656;28;20162;-78
2022/07/10 11:52:16;;;;;;;1.47;0.93;;;;;;;;;;5054208;28;20253;-79
2022/07/10 11:54:44;;;;;;;1.37;0.90;;;;;;;;;;5054229;28;20656;-79
2022/07/10 11:57:10;;;;;;;1.83;0.83;;;;;;;;;;5071115;28;20189;-79
2022/07/10 11:59:37;;;;;;;3.00;0.90;;;;;;;;;;5054214;28;20181;-79
2022/07/10 12:02:03;;;;;;;1.93;1.00;;;;;;;;;;5053953;28;20182;-79
2022/07/10 12:04:30;;;;;;;2.03;1.00;;;;;;;;;;5054279;28;20182;-79
2022/07/10 12:06:56;;;;;;;2.23;1.03;;;;;;;;;;5054234;28;20197;-79
2022/07/10 12:09:22;;;;;;;2.33;0.90;;;;;;;;;;5054044;28;20661;-79
2022/07/10 12:11:59;;;;;;;2.10;0.93;;;;;;;;;;5070684;28;20193;-79
2022/07/10 12:14:26;;;;;;;1.80;1.00;;;;;;;;;;5054200;28;20279;-79
2022/07/10 12:16:53;;;;;;;1.53;1.10;;;;;;;;;;5053698;28;20204;-78
2022/07/10 12:19:20;;;;;;;2.17;1.00;;;;;;;;;;5070527;28;20188;-79
2022/07/10 12:21:47;;;;;;;0.70;0.67;;;;;;;;;;5070040;28;20628;-78
2022/07/10 12:24:15;;;;;;;1.53;1.03;;;;;;;;;;5070589;28;20241;-79
2022/07/10 12:26:42;;;;;;;1.00;0.83;;;;;;;;;;5053899;28;20182;-79
2022/07/10 12:29:12;;;;;;;1.67;0.90;;;;;;;;;;5070585;28;20177;-77
2022/07/10 12:31:38;;;;;;;1.30;0.80;;;;;;;;;;5069786;28;20183;-78
2022/07/10 12:34:05;;;;;;;1.77;0.80;;;;;;;;;;5069618;28;20198;-77
2022/07/10 12:36:48;;;;;;;1.60;1.00;;;;;;;;;;5054386;28;20185;-79
2022/07/10 12:39:32;;;;;;;1.77;0.90;;;;;;;;;;5071575;28;20170;-79
2022/07/10 12:42:02;;;;;;;1.60;0.87;;;;;;;;;;5070865;28;20174;-78
2022/07/10 12:44:31;;;;;;;3.23;1.20;;;;;;;;;;5069454;28;20170;-77
2022/07/10 12:47:01;;;;;;;1.33;1.00;;;;;;;;;;5069251;28;20188;-77
2022/07/10 12:49:27;;;;;;;2.57;1.00;;;;;;;;;;5068934;28;20220;-77
2022/07/10 12:51:53;;;;;;;3.63;1.10;;;;;;;;;;5052834;28;20181;-77
2022/07/10 12:54:33;;;;;;;2.73;0.90;;;;;;;;;;5054862;28;20657;-83
2022/07/10 12:57:00;;;;;;;1.63;0.97;;;;;;;;;;5055259;28;20220;-81
2022/07/10 12:59:27;;;;;;;1.77;1.00;;;;;;;;;;5056058;28;20177;-81
2022/07/10 13:01:53;;;;;;;1.60;1.00;;;;;;;;;;5075663;28;20223;-78
2022/07/10 13:04:26;;;;;;;2.00;1.10;;;;;;;;;;5055752;28;20189;-80
2022/07/10 13:06:53;;;;;;;1.00;0.90;;;;;;;;;;5057969;28;20201;-80
2022/07/10 13:09:23;;;;;;;2.10;0.90;;;;;;;;;;5056720;28;20181;-80
2022/07/10 13:11:49;;;;;;;1.47;1.00;;;;;;;;;;5055658;28;20181;-80
2022/07/10 13:14:15;;;;;;;2.03;1.10;;;;;;;;;;5056353;28;20209;-80
2022/07/10 13:16:42;;;;;;;2.47;1.27;;;;;;;;;;5056091;28;20264;-80
2022/07/10 13:19:08;;;;;;;1.70;0.90;;;;;;;;;;5039667;28;20193;-81
2022/07/10 13:21:34;;;;;;;1.70;1.00;;;;;;;;;;5040157;28;20280;-81
2022/07/10 13:24:00;;;;;;;1.73;0.90;;;;;;;;;;5040553;28;20702;-81
2022/07/10 13:26:26;;;;;;;1.20;0.97;;;;;;;;;;5057136;28;20688;-81
2022/07/10 13:28:52;;;;;;;2.30;1.00;;;;;;;;;;5056093;28;20201;-80
2022/07/10 13:31:18;;;;;;;1.47;0.90;;;;;;;;;;5040733;28;20185;-81
2022/07/10 13:33:44;;;;;;;1.77;1.00;;;;;;;;;;5041301;28;20271;-81
2022/07/10 13:36:10;;;;;;;1.73;1.00;;;;;;;;;;5041139;28;20596;-80
2022/07/10 13:38:36;;;;;;;1.97;1.07;;;;;;;;;;5042365;28;20197;-81
2022/07/10 13:41:02;;;;;;;1.53;1.10;;;;;;;;;;5039061;28;20186;-82
2022/07/10 13:43:29;;;;;;;3.37;1.13;;;;;;;;;;5039187;28;20727;-81
2022/07/10 13:45:59;;;;;;;2.10;1.10;;;;;;;;;;5039719;28;20565;-80
2022/07/10 13:48:25;;;;;;;1.70;1.00;;;;;;;;;;5041095;28;20202;-80
2022/07/10 13:50:52;;;;;;;1.87;1.07;;;;;;;;;;5043534;28;20547;-80
2022/07/10 13:53:18;;;;;;;3.17;1.00;;;;;;;;;;5044696;28;20248;-80
2022/07/10 13:55:45;;;;;;;3.57;1.07;;;;;;;;;;5044636;28;20197;-80
2022/07/10 13:58:11;;;;;;;2.80;1.10;;;;;;;;;;5040507;28;20198;-80
2022/07/10 14:00:37;;;;;;;2.00;1.10;;;;;;;;;;5044819;28;20186;-80
2022/07/10 14:03:04;;;;;;;4.80;1.17;;;;;;;;;;5037049;28;20276;-80
2022/07/10 14:05:30;;;;;;;3.77;1.20;;;;;;;;;;5042756;28;20178;-79
2022/07/10 14:07:56;;;;;;;2.73;1.00;;;;;;;;;;5049118;28;20208;-79
2022/07/10 14:10:22;;;;;;;3.23;1.07;;;;;;;;;;5048707;28;20178;-78
2022/07/10 14:12:48;;;;;;;1.37;0.90;;;;;;;;;;5043766;28;20202;-79
2022/07/10 14:15:14;;;;;;;2.73;1.00;;;;;;;;;;5040546;28;20188;-80
2022/07/10 14:17:40;;;;;;;1.33;1.00;;;;;;;;;;5040558;28;20292;-79
2022/07/10 14:20:07;;;;;;;2.77;1.10;;;;;;;;;;5042939;28;20182;-81
2022/07/10 14:22:33;;;;;;;2.13;0.97;;;;;;;;;;5042028;28;20197;-81
2022/07/10 14:25:00;;;;;;;2.47;1.00;;;;;;;;;;5043689;28;20177;-81
2022/07/10 14:27:27;;;;;;;2.37;1.20;;;;;;;;;;5061553;28;20196;-81
2022/07/10 14:29:53;;;;;;;2.40;1.10;;;;;;;;;;5060917;28;20183;-81
2022/07/10 14:32:19;;;;;;;2.00;1.20;;;;;;;;;;5060162;28;20174;-82
2022/07/10 14:34:45;;;;;;;2.17;1.10;;;;;;;;;;5045466;28;20201;-81
2022/07/10 14:37:11;;;;;;;1.90;1.10;;;;;;;;;;5045967;28;20205;-81
2022/07/10 14:39:37;;;;;;;2.47;1.30;;;;;;;;;;5044937;28;20643;-81
2022/07/10 14:42:04;;;;;;;2.53;1.20;;;;;;;;;;5062294;28;20201;-80
2022/07/10 14:44:31;;;;;;;4.10;1.53;;;;;;;;;;5044925;28;20188;-81
2022/07/10 14:46:57;;;;;;;2.03;1.00;;;;;;;;;;5045189;28;20182;-81
2022/07/10 14:49:23;;;;;;;3.57;1.10;;;;;;;;;;5046805;28;20185;-81
2022/07/10 14:51:49;;;;;;;2.90;1.10;;;;;;;;;;5045809;28;20173;-81
2022/07/10 14:54:15;;;;;;;2.07;1.10;;;;;;;;;;5062594;28;20663;-81
2022/07/10 14:56:42;;;;;;;2.70;1.03;;;;;;;;;;5061844;28;20255;-80